createdAt,value
2022-07-29T00:02:01.352Z,3.72
2022-07-29T00:04:32.656Z,3.58
2022-07-29T00:07:04.455Z,3.50
2022-07-29T00:09:51.328Z,3.72
2022-07-29T00:12:10.576Z,3.52
2022-07-29T00:14:41.861Z,3.85
2022-07-29T00:17:15.917Z,3.37
2022-07-29T00:19:49.161Z,3.92
2022-07-29T00:22:20.618Z,3.65
2022-07-29T00:24:52.423Z,3.52
2022-07-29T00:27:24.113Z,3.95
2022-07-29T00:29:55.465Z,3.30
2022-07-29T00:32:28.162Z,3.35
2022-07-29T00:35:17.500Z,3.27
2022-07-29T00:37:48.991Z,3.58
2022-07-29T00:40:23.344Z,3.75
2022-07-29T00:42:54.559Z,3.15
2022-07-29T00:45:26.296Z,3.25
2022-07-29T00:47:57.871Z,3.50
2022-07-29T00:50:29.776Z,3.12
2022-07-29T00:53:02.476Z,3.17
2022-07-29T00:55:33.949Z,3.10
2022-07-29T00:58:05.629Z,3.02
2022-07-29T01:00:38.655Z,2.98
2022-07-29T01:03:10.764Z,3.10
2022-07-29T01:05:50.478Z,2.75
2022-07-29T01:08:18.168Z,2.98
2022-07-29T01:10:50.339Z,2.87
2022-07-29T01:13:23.004Z,3.00
2022-07-29T01:16:00.219Z,3.15
2022-07-29T01:18:40.312Z,3.08
2022-07-29T01:21:20.343Z,2.92
2022-07-29T01:24:14.039Z,3.08
2022-07-29T01:26:58.272Z,3.47
2022-07-29T01:29:49.374Z,2.70
2022-07-29T01:32:28.086Z,2.90
2022-07-29T01:35:09.098Z,2.98
2022-07-29T01:37:45.836Z,2.85
2022-07-29T01:40:31.965Z,2.87
2022-07-29T01:43:05.904Z,3.25
2022-07-29T01:46:09.071Z,2.67
2022-07-29T01:48:59.183Z,3.15
2022-07-29T01:51:56.180Z,2.90
2022-07-29T01:54:33.482Z,2.75
2022-07-29T01:57:06.334Z,3.00
2022-07-29T01:59:39.745Z,2.72
2022-07-29T02:02:13.465Z,3.17
2022-07-29T02:04:49.004Z,3.33
2022-07-29T02:07:23.189Z,2.90
2022-07-29T02:09:56.292Z,2.83
2022-07-29T02:12:30.831Z,2.80
2022-07-29T02:15:04.732Z,2.63
2022-07-29T02:17:47.574Z,2.52
2022-07-29T02:20:19.710Z,2.70
2022-07-29T02:22:53.508Z,2.65
2022-07-29T02:25:37.500Z,2.60
2022-07-29T02:28:02.329Z,2.95
2022-07-29T02:30:34.896Z,2.67
2022-07-29T02:33:08.168Z,2.55
2022-07-29T02:35:40.542Z,2.75
2022-07-29T02:38:32.437Z,2.70
2022-07-29T02:41:07.189Z,2.83
2022-07-29T02:43:39.463Z,2.17
2022-07-29T02:46:28.417Z,2.62
2022-07-29T02:48:49.110Z,2.47
2022-07-29T02:51:43.644Z,2.25
2022-07-29T02:53:59.666Z,2.40
2022-07-29T02:56:35.527Z,2.42
2022-07-29T02:59:09.474Z,2.35
2022-07-29T03:01:44.068Z,2.42
2022-07-29T03:04:17.440Z,2.30
2022-07-29T03:06:51.085Z,2.60
2022-07-29T03:09:23.370Z,2.37
2022-07-29T03:11:55.873Z,2.50
2022-07-29T03:14:27.792Z,2.37
2022-07-29T03:16:59.995Z,2.37
2022-07-29T03:19:31.711Z,2.47
2022-07-29T03:22:11.112Z,2.10
2022-07-29T03:24:45.894Z,2.08
2022-07-29T03:27:19.058Z,2.00
2022-07-29T03:29:50.775Z,2.20
2022-07-29T03:32:23.790Z,1.90
2022-07-29T03:34:55.391Z,2.17
2022-07-29T03:37:27.920Z,2.12
2022-07-29T03:40:00.409Z,2.40
2022-07-29T03:42:34.589Z,2.08
2022-07-29T03:45:08.586Z,1.80
2022-07-29T03:47:51.032Z,2.12
2022-07-29T03:50:17.561Z,2.20
2022-07-29T03:52:49.779Z,2.20
2022-07-29T03:55:21.617Z,2.00
2022-07-29T03:57:53.816Z,2.10
2022-07-29T04:00:27.332Z,2.10
2022-07-29T04:02:59.091Z,2.02
2022-07-29T04:05:30.871Z,1.72
2022-07-29T04:08:04.053Z,1.80
2022-07-29T04:10:35.810Z,1.85
2022-07-29T04:13:08.419Z,1.72
2022-07-29T04:15:39.976Z,1.80
2022-07-29T04:18:11.351Z,1.70
2022-07-29T04:20:44.129Z,1.70
2022-07-29T04:23:15.511Z,1.70
2022-07-29T04:25:47.007Z,1.87
2022-07-29T04:28:18.694Z,1.65
2022-07-29T04:30:50.093Z,1.62
2022-07-29T04:33:21.469Z,1.62
2022-07-29T04:35:55.627Z,1.98
2022-07-29T04:38:27.200Z,2.05
2022-07-29T04:40:58.209Z,1.65
2022-07-29T04:43:30.005Z,1.80
2022-07-29T04:46:03.170Z,1.85
2022-07-29T04:48:34.819Z,1.80
2022-07-29T04:51:06.256Z,1.77
2022-07-29T04:53:37.808Z,1.77
2022-07-29T04:56:09.170Z,1.82
2022-07-29T04:58:41.060Z,1.55
2022-07-29T05:01:12.583Z,1.57
2022-07-29T05:03:44.315Z,1.65
2022-07-29T05:06:15.976Z,1.60
2022-07-29T05:08:47.342Z,1.65
2022-07-29T05:11:21.835Z,1.57
2022-07-29T05:13:51.720Z,1.60
2022-07-29T05:16:22.976Z,1.70
2022-07-29T05:18:54.481Z,1.50
2022-07-29T05:21:26.032Z,1.52
2022-07-29T05:23:57.356Z,1.60
2022-07-29T05:26:28.698Z,1.70
2022-07-29T05:29:00.375Z,1.40
2022-07-29T05:31:31.894Z,1.80
2022-07-29T05:34:03.346Z,1.70
2022-07-29T05:36:34.854Z,1.60
2022-07-29T05:39:06.285Z,1.65
2022-07-29T05:41:37.691Z,1.50
2022-07-29T05:44:09.228Z,1.65
2022-07-29T05:46:40.834Z,1.30
2022-07-29T05:49:23.147Z,1.80
2022-07-29T05:51:48.861Z,1.55
2022-07-29T05:54:20.263Z,1.70
2022-07-29T05:56:53.015Z,1.70
2022-07-29T05:59:29.850Z,1.90
2022-07-29T06:01:58.628Z,1.70
2022-07-29T06:04:31.675Z,1.90
2022-07-29T06:07:03.170Z,1.87
2022-07-29T06:09:36.365Z,1.40
2022-07-29T06:12:08.100Z,1.77
2022-07-29T06:14:39.680Z,1.50
2022-07-29T06:17:12.498Z,1.37
2022-07-29T06:19:43.999Z,1.75
2022-07-29T06:22:16.638Z,1.60
2022-07-29T06:24:48.495Z,1.67
2022-07-29T06:27:19.906Z,1.35
2022-07-29T06:29:51.394Z,1.47
2022-07-29T06:32:23.288Z,1.60
2022-07-29T06:35:11.862Z,1.82
2022-07-29T06:37:29.597Z,1.30
2022-07-29T06:40:20.621Z,1.40
2022-07-29T06:42:52.601Z,1.60
2022-07-29T06:45:25.330Z,1.60
2022-07-29T06:47:58.447Z,1.67
2022-07-29T06:50:30.413Z,1.35
2022-07-29T06:53:03.592Z,1.80
2022-07-29T06:55:35.237Z,1.52
2022-07-29T06:58:06.634Z,1.67
2022-07-29T07:00:41.115Z,1.30
2022-07-29T07:03:12.577Z,1.92
2022-07-29T07:05:44.236Z,1.50
2022-07-29T07:08:17.580Z,1.20
2022-07-29T07:10:49.297Z,1.20
2022-07-29T07:13:21.971Z,1.40
2022-07-29T07:15:53.843Z,1.30
2022-07-29T07:18:25.549Z,1.12
2022-07-29T07:20:57.374Z,1.30
2022-07-29T07:23:28.777Z,1.10
2022-07-29T07:26:00.341Z,1.10
2022-07-29T07:28:31.890Z,1.10
2022-07-29T07:31:03.881Z,1.10
2022-07-29T07:33:35.427Z,1.57
2022-07-29T07:36:07.147Z,1.02
2022-07-29T07:38:38.595Z,1.37
2022-07-29T07:41:11.666Z,1.22
2022-07-29T07:43:43.588Z,1.22
2022-07-29T07:46:16.199Z,1.07
2022-07-29T07:48:48.012Z,1.07
2022-07-29T07:51:19.685Z,1.17
2022-07-29T07:53:51.802Z,1.27
2022-07-29T07:56:23.804Z,1.10
2022-07-29T07:58:55.448Z,1.37
2022-07-29T08:01:27.359Z,1.50
2022-07-29T08:03:58.850Z,1.07
2022-07-29T08:06:31.539Z,0.90
2022-07-29T08:09:28.846Z,1.15
2022-07-29T08:11:52.129Z,1.30
2022-07-29T08:14:22.386Z,1.15
2022-07-29T08:16:54.038Z,1.10
2022-07-29T08:19:25.828Z,1.50
2022-07-29T08:21:57.289Z,1.10
2022-07-29T08:24:47.245Z,1.12
2022-07-29T08:27:41.979Z,1.45
2022-07-29T08:29:52.468Z,1.20
2022-07-29T08:32:50.895Z,1.30
2022-07-29T08:34:57.799Z,1.35
2022-07-29T08:37:44.242Z,1.20
2022-07-29T08:40:15.917Z,1.67
2022-07-29T08:42:47.741Z,1.22
2022-07-29T08:45:19.524Z,1.10
2022-07-29T08:47:51.012Z,1.00
2022-07-29T08:50:22.678Z,1.30
2022-07-29T08:52:59.632Z,1.07
2022-07-29T08:55:28.266Z,1.30
2022-07-29T08:58:00.729Z,1.30
2022-07-29T09:00:33.098Z,1.00
2022-07-29T09:03:06.458Z,1.52
2022-07-29T09:05:47.784Z,1.60
2022-07-29T09:08:18.604Z,1.12
2022-07-29T09:10:50.674Z,1.10
2022-07-29T09:13:23.651Z,1.72
2022-07-29T09:15:55.754Z,1.30
2022-07-29T09:18:40.783Z,1.10
2022-07-29T09:21:32.668Z,1.50
2022-07-29T09:24:10.381Z,1.37
2022-07-29T09:26:52.891Z,1.20
2022-07-29T09:29:41.404Z,1.32
2022-07-29T09:32:15.929Z,1.42
2022-07-29T09:34:49.688Z,1.50
2022-07-29T09:37:33.633Z,1.22
2022-07-29T09:40:11.718Z,1.07
2022-07-29T09:42:41.093Z,1.10
2022-07-29T09:45:13.253Z,1.22
2022-07-29T09:47:52.202Z,1.32
2022-07-29T09:50:25.804Z,1.20
2022-07-29T09:52:58.041Z,1.05
2022-07-29T09:55:30.995Z,1.20
2022-07-29T09:58:24.240Z,1.22
2022-07-29T10:00:57.091Z,1.17
2022-07-29T10:03:28.473Z,1.30
2022-07-29T10:06:14.970Z,1.30
2022-07-29T10:08:48.473Z,1.20
2022-07-29T10:11:21.198Z,1.30
2022-07-29T10:13:52.758Z,1.25
2022-07-29T10:16:24.585Z,1.20
2022-07-29T10:18:56.387Z,1.00
2022-07-29T10:21:36.133Z,1.25
2022-07-29T10:24:04.789Z,1.00
2022-07-29T10:26:41.159Z,1.02
2022-07-29T10:29:15.218Z,1.30
2022-07-29T10:32:24.923Z,1.10
2022-07-29T10:35:22.519Z,1.20
2022-07-29T10:38:17.346Z,1.20
2022-07-29T10:41:32.362Z,1.10
2022-07-29T10:44:17.195Z,1.22
2022-07-29T10:46:46.298Z,1.00
2022-07-29T10:49:24.389Z,1.00
2022-07-29T10:52:02.092Z,1.22
2022-07-29T10:54:44.246Z,1.10
2022-07-29T10:57:52.504Z,1.30
2022-07-29T11:00:13.431Z,1.20
2022-07-29T11:02:52.574Z,1.25
2022-07-29T11:05:25.427Z,1.17
2022-07-29T11:08:21.099Z,1.03
2022-07-29T11:10:55.296Z,1.07
2022-07-29T11:16:32.779Z,1.20
2022-07-29T11:19:21.557Z,1.12
2022-07-29T11:21:55.011Z,1.25
2022-07-29T11:24:30.388Z,1.10
2022-07-29T11:27:23.494Z,1.22
2022-07-29T11:29:58.901Z,1.37
2022-07-29T11:32:40.565Z,1.00
2022-07-29T11:35:18.620Z,1.00
2022-07-29T11:38:09.297Z,0.93
2022-07-29T11:40:44.352Z,1.30
2022-07-29T11:43:19.695Z,1.07
2022-07-29T11:45:52.234Z,1.00
2022-07-29T11:53:32.589Z,1.05
2022-07-29T11:56:04.507Z,1.40
2022-07-29T11:58:38.027Z,1.15
2022-07-29T12:01:09.523Z,1.12
2022-07-29T12:03:40.940Z,1.50
2022-07-29T12:06:18.232Z,1.30
2022-07-29T12:08:50.334Z,1.30
2022-07-29T12:11:23.453Z,1.20
2022-07-29T12:13:55.789Z,1.10
2022-07-29T12:16:30.300Z,1.07
2022-07-29T12:19:05.399Z,1.10
2022-07-29T12:21:56.938Z,1.00
2022-07-29T12:24:30.559Z,1.20
2022-07-29T12:27:03.049Z,1.10
2022-07-29T12:29:35.968Z,1.32
2022-07-29T12:32:14.979Z,1.50
2022-07-29T12:34:41.118Z,1.10
2022-07-29T12:37:12.740Z,1.10
2022-07-29T12:39:45.443Z,1.02
2022-07-29T12:42:19.973Z,1.02
2022-07-29T12:44:53.739Z,1.10
2022-07-29T12:47:25.744Z,1.17
2022-07-29T12:50:24.493Z,1.50
2022-07-29T12:52:53.006Z,1.10
2022-07-29T12:55:43.742Z,1.20
2022-07-29T12:58:15.300Z,1.02
2022-07-29T13:00:47.192Z,1.00
2022-07-29T13:03:18.637Z,1.00
2022-07-29T13:05:51.946Z,0.90
2022-07-29T13:08:23.450Z,1.10
2022-07-29T13:10:55.094Z,1.15
2022-07-29T13:13:27.044Z,1.05
2022-07-29T13:16:12.067Z,1.02
2022-07-29T13:18:43.992Z,1.00
2022-07-29T13:21:16.885Z,1.20
2022-07-29T13:23:50.144Z,1.27
2022-07-29T13:26:21.744Z,1.32
2022-07-29T13:28:53.443Z,1.20
2022-07-29T13:31:24.816Z,1.05
2022-07-29T13:33:56.059Z,1.20
2022-07-29T13:36:28.216Z,1.00
2022-07-29T13:38:59.829Z,1.27
2022-07-29T13:41:31.920Z,1.07
2022-07-29T13:44:03.806Z,1.07
2022-07-29T13:46:35.557Z,1.20
2022-07-29T13:49:12.762Z,1.02
2022-07-29T13:51:44.031Z,1.00
2022-07-29T13:54:15.772Z,1.20
2022-07-29T13:56:47.260Z,1.17
2022-07-29T13:59:18.908Z,1.22
2022-07-29T14:01:50.310Z,1.10
2022-07-29T14:04:21.768Z,1.15
2022-07-29T14:06:53.473Z,1.00
2022-07-29T14:09:25.333Z,1.40
2022-07-29T14:11:58.144Z,1.02
2022-07-29T14:14:31.126Z,1.20
2022-07-29T14:17:04.588Z,1.65
2022-07-29T14:19:40.250Z,1.00
2022-07-29T14:22:29.573Z,1.15
2022-07-29T14:25:08.068Z,0.90
2022-07-29T14:27:38.673Z,1.10
2022-07-29T14:30:11.076Z,1.20
2022-07-29T14:32:43.205Z,1.00
2022-07-29T14:35:14.955Z,1.20
2022-07-29T14:37:46.045Z,1.02
2022-07-29T14:40:19.085Z,1.00
2022-07-29T14:42:50.605Z,1.10
2022-07-29T14:45:22.390Z,1.10
2022-07-29T14:47:57.207Z,0.80
2022-07-29T14:50:32.109Z,1.30
2022-07-29T14:53:01.435Z,7.03
2022-07-29T14:55:34.386Z,4.25
2022-07-29T14:58:10.935Z,3.25
2022-07-29T15:00:39.281Z,2.10
2022-07-29T15:03:14.010Z,1.85
2022-07-29T15:05:47.153Z,1.52
2022-07-29T15:08:19.409Z,2.05
2022-07-29T15:10:51.095Z,1.65
2022-07-29T15:13:22.375Z,1.60
2022-07-29T15:15:59.952Z,1.65
2022-07-29T15:18:29.234Z,1.50
2022-07-29T15:21:02.239Z,1.07
2022-07-29T15:23:36.899Z,1.02
2022-07-29T15:26:08.266Z,1.10
2022-07-29T15:28:40.992Z,1.07
2022-07-29T15:31:12.310Z,1.27
2022-07-29T15:33:43.853Z,1.10
2022-07-29T15:36:35.699Z,1.10
2022-07-29T15:38:51.822Z,1.00
2022-07-29T15:41:24.829Z,1.10
2022-07-29T15:43:58.865Z,1.03
2022-07-29T15:46:48.210Z,0.93
2022-07-29T15:49:23.653Z,1.27
2022-07-29T15:51:59.589Z,0.90
2022-07-29T15:54:28.017Z,1.00
2022-07-29T15:57:02.226Z,0.90
2022-07-29T15:59:35.230Z,0.95
2022-07-29T16:02:07.127Z,1.00
2022-07-29T16:04:38.402Z,0.82
2022-07-29T16:07:10.895Z,1.40
2022-07-29T16:09:42.348Z,1.20
2022-07-29T16:12:14.896Z,1.07
2022-07-29T16:14:46.829Z,1.32
2022-07-29T16:17:18.994Z,1.30
2022-07-29T16:19:50.930Z,1.30
2022-07-29T16:22:22.480Z,1.30
2022-07-29T16:24:55.448Z,1.30
2022-07-29T16:27:35.392Z,1.75
2022-07-29T16:30:03.603Z,1.20
2022-07-29T16:32:35.808Z,1.60
2022-07-29T16:35:08.326Z,1.20
2022-07-29T16:37:39.890Z,1.20
2022-07-29T16:40:11.944Z,1.10
2022-07-29T16:42:47.392Z,1.37
2022-07-29T16:45:16.178Z,1.07
2022-07-29T16:47:47.645Z,1.17
2022-07-29T16:50:18.931Z,1.20
2022-07-29T16:52:51.745Z,1.22
2022-07-29T16:55:23.992Z,1.20
2022-07-29T16:57:55.615Z,1.07
2022-07-29T17:00:29.960Z,1.10
2022-07-29T17:03:06.030Z,1.40
2022-07-29T17:05:52.477Z,1.27
2022-07-29T17:08:10.679Z,1.07
2022-07-29T17:10:48.381Z,1.10
2022-07-29T17:13:20.466Z,1.20
2022-07-29T17:15:51.358Z,1.10
2022-07-29T17:18:24.249Z,1.17
2022-07-29T17:20:56.887Z,1.10
2022-07-29T17:23:30.351Z,1.37
2022-07-29T17:26:02.087Z,1.30
2022-07-29T17:28:36.305Z,1.00
2022-07-29T17:31:12.513Z,0.97
2022-07-29T17:33:43.901Z,0.85
2022-07-29T17:36:32.961Z,1.10
2022-07-29T17:39:07.421Z,0.93
2022-07-29T17:41:39.143Z,1.10
2022-07-29T17:44:10.917Z,1.40
2022-07-29T17:46:42.979Z,1.10
2022-07-29T17:49:15.827Z,1.27
2022-07-29T17:51:48.197Z,1.12
2022-07-29T17:54:19.775Z,1.32
2022-07-29T17:56:51.154Z,1.30
2022-07-29T17:59:22.575Z,1.20
2022-07-29T18:01:53.740Z,1.20
2022-07-29T18:04:25.515Z,1.25
2022-07-29T18:06:57.354Z,1.50
2022-07-29T18:09:28.834Z,1.32
2022-07-29T18:12:11.189Z,1.30
2022-07-29T18:14:43.679Z,1.50
2022-07-29T18:17:20.995Z,1.15
2022-07-29T18:20:08.821Z,1.50
2022-07-29T18:22:42.777Z,1.47
2022-07-29T18:25:16.537Z,1.40
2022-07-29T18:27:51.844Z,1.45
2022-07-29T18:30:25.122Z,1.45
2022-07-29T18:35:39.618Z,1.20
2022-07-29T18:40:44.465Z,1.50
2022-07-29T18:43:18.319Z,1.17
2022-07-29T18:45:50.163Z,1.30
2022-07-29T18:48:23.189Z,1.22
2022-07-29T18:50:54.779Z,1.25
2022-07-29T18:53:26.089Z,1.50
2022-07-29T18:56:00.412Z,1.42
2022-07-29T18:58:33.447Z,1.57
2022-07-29T19:01:05.130Z,1.70
2022-07-29T19:03:37.246Z,1.50
2022-07-29T19:06:08.206Z,1.45
2022-07-29T19:08:40.936Z,1.47
2022-07-29T19:11:13.385Z,1.80
2022-07-29T19:13:46.255Z,1.60
2022-07-29T19:16:18.640Z,2.08
2022-07-29T19:18:49.960Z,2.00
2022-07-29T19:21:21.472Z,2.00
2022-07-29T19:24:01.758Z,1.90
2022-07-29T19:26:26.361Z,2.20
2022-07-29T19:28:57.981Z,1.82
2022-07-29T19:31:29.566Z,2.20
2022-07-29T19:34:01.251Z,2.20
2022-07-29T19:36:32.684Z,2.05
2022-07-29T19:39:04.452Z,2.20
2022-07-29T19:41:35.931Z,2.15
2022-07-29T19:44:07.508Z,1.80
2022-07-29T19:46:39.325Z,2.92
2022-07-29T19:49:10.880Z,2.10
2022-07-29T19:51:42.745Z,2.17
2022-07-29T19:54:16.094Z,2.00
2022-07-29T19:56:47.924Z,1.90
2022-07-29T19:59:29.662Z,2.00
2022-07-29T20:02:10.701Z,1.95
2022-07-29T20:04:42.538Z,2.10
2022-07-29T20:07:15.085Z,1.72
2022-07-29T20:09:46.860Z,2.25
2022-07-29T20:12:18.621Z,2.15
2022-07-29T20:14:50.797Z,2.05
2022-07-29T20:17:23.863Z,2.30
2022-07-29T20:19:59.394Z,2.47
2022-07-29T20:22:31.233Z,2.40
2022-07-29T20:25:04.397Z,2.10
2022-07-29T20:27:37.276Z,2.10
2022-07-29T20:30:09.650Z,2.00
2022-07-29T20:32:43.168Z,2.40
2022-07-29T20:35:14.862Z,2.02
2022-07-29T20:37:52.425Z,2.50
2022-07-29T20:40:19.568Z,2.25
2022-07-29T20:42:51.363Z,2.58
2022-07-29T20:45:23.949Z,2.10
2022-07-29T20:47:55.791Z,2.25
2022-07-29T20:50:27.709Z,2.22
2022-07-29T20:52:59.519Z,2.27
2022-07-29T20:55:32.508Z,2.95
2022-07-29T20:58:05.040Z,2.72
2022-07-29T21:00:36.537Z,2.75
2022-07-29T21:03:09.289Z,2.50
2022-07-29T21:05:42.868Z,2.77
2022-07-29T21:08:15.608Z,2.55
2022-07-29T21:10:56.549Z,3.22
2022-07-29T21:13:32.884Z,2.90
2022-07-29T21:16:09.617Z,4.12
2022-07-29T21:18:46.900Z,3.47
2022-07-29T21:21:18.859Z,3.50
2022-07-29T21:23:50.581Z,3.90
2022-07-29T21:26:22.867Z,4.08
2022-07-29T21:28:54.803Z,3.90
2022-07-29T21:31:27.597Z,3.72
2022-07-29T21:33:59.005Z,2.72
2022-07-29T21:36:49.093Z,2.80
2022-07-29T21:39:07.484Z,3.12
2022-07-29T21:41:39.260Z,2.70
2022-07-29T21:44:11.186Z,2.77
2022-07-29T21:46:42.468Z,3.22
2022-07-29T21:49:14.114Z,3.62
2022-07-29T21:51:45.727Z,4.50
2022-07-29T21:54:17.280Z,4.12
2022-07-29T21:56:51.454Z,4.80
2022-07-29T21:59:22.894Z,3.77
2022-07-29T22:01:54.501Z,3.35
2022-07-29T22:04:25.803Z,3.17
2022-07-29T22:06:58.180Z,3.47
2022-07-29T22:09:30.019Z,2.60
2022-07-29T22:12:06.327Z,3.00
2022-07-29T22:14:39.064Z,2.60
2022-07-29T22:17:10.757Z,2.62
2022-07-29T22:19:42.486Z,2.20
2022-07-29T22:22:13.935Z,2.47
2022-07-29T22:24:46.114Z,2.35
2022-07-29T22:27:17.780Z,2.08
2022-07-29T22:29:49.446Z,2.00
2022-07-29T22:32:20.934Z,2.20
2022-07-29T22:34:52.355Z,1.85
2022-07-29T22:37:25.097Z,2.00
2022-07-29T22:39:57.335Z,1.95
2022-07-29T22:42:28.860Z,2.00
2022-07-29T22:45:00.333Z,2.00
2022-07-29T22:47:46.702Z,2.15
2022-07-29T22:50:05.333Z,2.33
2022-07-29T22:52:36.682Z,1.85
2022-07-29T22:55:08.842Z,1.95
2022-07-29T22:57:40.537Z,1.60
2022-07-29T23:00:13.050Z,2.10
2022-07-29T23:02:44.605Z,1.70
2022-07-29T23:05:17.898Z,2.20
2022-07-29T23:07:49.658Z,1.87
2022-07-29T23:10:22.922Z,1.55
2022-07-29T23:12:54.305Z,2.02
2022-07-29T23:15:25.902Z,2.10
2022-07-29T23:17:57.385Z,1.77
2022-07-29T23:20:29.201Z,1.92
2022-07-29T23:23:00.442Z,1.77
2022-07-29T23:25:31.603Z,1.95
2022-07-29T23:28:04.725Z,1.70
2022-07-29T23:30:36.596Z,1.50
2022-07-29T23:33:08.055Z,1.82
2022-07-29T23:35:39.567Z,2.10
2022-07-29T23:38:11.051Z,1.85
2022-07-29T23:40:42.330Z,1.95
2022-07-29T23:43:13.763Z,1.85
2022-07-29T23:45:48.694Z,1.75
2022-07-29T23:48:18.506Z,1.75
2022-07-29T23:50:51.051Z,2.05
2022-07-29T23:53:22.748Z,1.55
2022-07-29T23:55:55.259Z,1.60
2022-07-29T23:58:28.169Z,1.52
